createdAt,value
2023-01-21T00:00:59.831Z,9.57
2023-01-21T00:03:26.520Z,8.10
2023-01-21T00:05:53.419Z,10.40
2023-01-21T00:08:20.179Z,6.83
2023-01-21T00:10:46.922Z,14.27
2023-01-21T00:13:13.567Z,8.63
2023-01-21T00:15:40.278Z,9.83
2023-01-21T00:18:07.418Z,9.17
2023-01-21T00:20:34.275Z,8.73
2023-01-21T00:23:01.235Z,9.53
2023-01-21T00:25:28.128Z,8.13
2023-01-21T00:27:55.286Z,7.10
2023-01-21T00:30:22.395Z,10.67
2023-01-21T00:32:50.335Z,8.57
2023-01-21T00:35:17.213Z,8.33
2023-01-21T00:37:43.829Z,7.37
2023-01-21T00:40:11.079Z,6.37
2023-01-21T00:42:37.711Z,8.43
2023-01-21T00:45:05.022Z,9.33
2023-01-21T00:47:31.651Z,5.50
2023-01-21T00:49:58.308Z,7.30
2023-01-21T00:52:26.180Z,6.93
2023-01-21T00:54:53.101Z,4.67
2023-01-21T00:57:19.840Z,5.27
2023-01-21T00:59:46.645Z,7.23
2023-01-21T01:02:13.405Z,6.50
2023-01-21T01:04:40.201Z,5.30
2023-01-21T01:07:06.840Z,6.70
2023-01-21T01:09:33.443Z,5.33
2023-01-21T01:12:00.492Z,5.90
2023-01-21T01:14:27.159Z,5.43
2023-01-21T01:16:53.799Z,5.97
2023-01-21T01:19:20.544Z,9.10
2023-01-21T01:21:47.275Z,6.30
2023-01-21T01:24:13.919Z,6.03
2023-01-21T01:26:42.219Z,6.47
2023-01-21T01:29:13.413Z,7.57
2023-01-21T01:31:40.215Z,7.93
2023-01-21T01:34:07.107Z,5.60
2023-01-21T01:36:33.933Z,7.17
2023-01-21T01:39:00.553Z,9.73
2023-01-21T01:41:29.919Z,8.63
2023-01-21T01:44:05.311Z,9.63
2023-01-21T01:46:35.645Z,8.60
2023-01-21T01:49:20.234Z,6.37
2023-01-21T01:51:52.996Z,7.53
2023-01-21T01:54:27.310Z,9.27
2023-01-21T01:56:57.388Z,7.33
2023-01-21T01:59:24.555Z,9.00
2023-01-21T02:01:51.299Z,12.43
2023-01-21T02:04:22.912Z,7.23
2023-01-21T02:06:54.642Z,8.87
2023-01-21T02:09:22.136Z,6.53
2023-01-21T02:11:49.363Z,8.17
2023-01-21T02:14:16.717Z,7.10
2023-01-21T02:16:58.553Z,8.40
2023-01-21T02:19:36.993Z,6.90
2023-01-21T02:22:16.864Z,6.67
2023-01-21T02:24:55.407Z,5.83
2023-01-21T02:27:36.406Z,6.47
2023-01-21T02:30:33.824Z,5.73
2023-01-21T02:33:28.286Z,7.20
2023-01-21T02:36:04.173Z,7.33
2023-01-21T02:38:50.815Z,6.20
2023-01-21T02:41:27.947Z,5.90
2023-01-21T02:44:07.997Z,7.07
2023-01-21T02:46:44.855Z,9.20
2023-01-21T02:49:27.553Z,5.87
2023-01-21T02:51:54.150Z,6.20
2023-01-21T02:54:39.040Z,9.33
2023-01-21T02:57:16.265Z,6.70
2023-01-21T02:59:47.612Z,8.07
2023-01-21T03:02:33.099Z,7.17
2023-01-21T03:05:21.511Z,6.63
2023-01-21T03:07:52.488Z,9.03
2023-01-21T03:10:23.811Z,6.43
2023-01-21T03:13:06.531Z,8.70
2023-01-21T03:16:02.584Z,6.93
2023-01-21T03:18:34.063Z,7.93
2023-01-21T03:21:15.614Z,7.00
2023-01-21T03:23:45.588Z,6.83
2023-01-21T03:26:16.732Z,11.67
2023-01-21T03:28:52.540Z,9.93
2023-01-21T03:31:23.817Z,7.80
2023-01-21T03:33:54.991Z,7.83
2023-01-21T03:36:29.210Z,9.73
2023-01-21T03:38:57.650Z,9.83
2023-01-21T03:41:33.533Z,10.70
2023-01-21T03:44:00.649Z,12.17
2023-01-21T03:46:41.488Z,10.80
2023-01-21T03:49:32.120Z,9.67
2023-01-21T03:52:01.045Z,11.73
2023-01-21T03:54:27.833Z,11.60
2023-01-21T03:56:54.409Z,14.10
2023-01-21T03:59:21.062Z,14.33
2023-01-21T04:01:47.681Z,15.07
2023-01-21T04:04:14.323Z,11.43
2023-01-21T04:06:40.887Z,12.27
2023-01-21T04:09:07.896Z,13.77
2023-01-21T04:11:34.495Z,15.63
2023-01-21T04:14:01.352Z,12.70
2023-01-21T04:16:28.190Z,14.67
2023-01-21T04:18:54.908Z,14.90
2023-01-21T04:21:21.484Z,18.40
2023-01-21T04:23:48.042Z,14.67
2023-01-21T04:26:16.341Z,16.50
2023-01-21T04:28:43.160Z,14.70
2023-01-21T04:31:10.023Z,13.83
2023-01-21T04:33:36.714Z,15.27
2023-01-21T04:36:03.633Z,17.33
2023-01-21T04:38:30.307Z,16.20
2023-01-21T04:40:56.983Z,15.90
2023-01-21T04:43:23.739Z,16.10
2023-01-21T04:45:50.398Z,14.63
2023-01-21T04:48:17.739Z,17.93
2023-01-21T04:50:45.710Z,15.50
2023-01-21T04:53:12.484Z,15.10
2023-01-21T04:55:39.113Z,17.10
2023-01-21T04:58:05.991Z,16.50
2023-01-21T05:00:32.613Z,16.90
2023-01-21T05:02:59.226Z,18.23
2023-01-21T05:05:25.993Z,13.63
2023-01-21T05:07:53.842Z,16.73
2023-01-21T05:10:20.746Z,15.00
2023-01-21T05:12:48.517Z,13.63
2023-01-21T05:15:15.264Z,16.77
2023-01-21T05:17:42.212Z,15.23
2023-01-21T05:20:09.591Z,15.53
2023-01-21T05:22:36.251Z,16.23
2023-01-21T05:25:02.974Z,14.73
2023-01-21T05:27:29.931Z,13.37
2023-01-21T05:29:57.150Z,14.77
2023-01-21T05:32:24.147Z,15.00
2023-01-21T05:34:50.794Z,15.27
2023-01-21T05:37:17.489Z,16.57
2023-01-21T05:39:44.532Z,15.30
2023-01-21T05:42:11.258Z,13.80
2023-01-21T05:44:37.896Z,14.17
2023-01-21T05:47:04.647Z,13.97
2023-01-21T05:49:31.263Z,16.50
2023-01-21T05:51:57.874Z,16.50
2023-01-21T05:54:24.530Z,12.50
2023-01-21T05:56:51.081Z,13.27
2023-01-21T05:59:17.653Z,16.30
2023-01-21T06:01:44.283Z,15.63
2023-01-21T06:04:11.152Z,14.77
2023-01-21T06:06:37.861Z,15.97
2023-01-21T06:09:04.537Z,12.80
2023-01-21T06:11:31.096Z,13.80
2023-01-21T06:13:57.866Z,14.20
2023-01-21T06:16:24.430Z,16.37
2023-01-21T06:18:51.019Z,15.90
2023-01-21T06:21:17.627Z,14.53
2023-01-21T06:23:44.322Z,14.80
2023-01-21T06:26:11.451Z,13.93
2023-01-21T06:28:38.200Z,13.23
2023-01-21T06:31:05.160Z,12.13
2023-01-21T06:33:31.873Z,11.83
2023-01-21T06:35:58.485Z,14.57
2023-01-21T06:38:25.093Z,14.60
2023-01-21T06:40:51.717Z,11.87
2023-01-21T06:43:18.354Z,14.57
2023-01-21T06:45:45.069Z,14.40
2023-01-21T06:48:11.701Z,13.97
2023-01-21T06:50:38.307Z,11.20
2023-01-21T06:53:04.982Z,13.37
2023-01-21T06:55:31.594Z,13.50
2023-01-21T06:57:58.187Z,12.43
2023-01-21T07:00:25.088Z,11.60
2023-01-21T07:02:58.743Z,16.00
2023-01-21T07:05:26.354Z,13.17
2023-01-21T07:07:57.429Z,13.67
2023-01-21T07:10:24.988Z,15.73
2023-01-21T07:12:52.041Z,14.47
2023-01-21T07:15:19.247Z,14.30
2023-01-21T07:17:46.145Z,14.80
2023-01-21T07:20:12.841Z,14.17
2023-01-21T07:22:39.586Z,15.17
2023-01-21T07:25:08.203Z,13.07
2023-01-21T07:27:34.845Z,18.50
2023-01-21T07:30:01.594Z,12.53
2023-01-21T07:32:29.851Z,15.30
2023-01-21T07:34:56.474Z,12.97
2023-01-21T07:37:23.083Z,13.40
2023-01-21T07:39:49.658Z,16.33
2023-01-21T07:42:16.232Z,15.60
2023-01-21T07:44:42.953Z,14.30
2023-01-21T07:47:10.409Z,14.23
2023-01-21T07:49:37.498Z,14.57
2023-01-21T07:52:04.186Z,13.10
2023-01-21T07:54:30.763Z,13.47
2023-01-21T07:56:57.560Z,16.03
2023-01-21T07:59:24.492Z,12.90
2023-01-21T08:01:51.352Z,15.67
2023-01-21T08:04:18.080Z,15.30
2023-01-21T08:06:44.730Z,17.30
2023-01-21T08:09:11.375Z,17.53
2023-01-21T08:11:37.969Z,15.73
2023-01-21T08:14:04.644Z,15.17
2023-01-21T08:16:31.347Z,17.60
2023-01-21T08:18:57.946Z,18.43
2023-01-21T08:21:24.554Z,16.63
2023-01-21T08:23:51.113Z,15.57
2023-01-21T08:26:17.718Z,15.87
2023-01-21T08:28:44.364Z,18.60
2023-01-21T08:31:12.987Z,16.83
2023-01-21T08:33:40.058Z,17.30
2023-01-21T08:36:08.171Z,23.37
2023-01-21T08:38:35.214Z,21.07
2023-01-21T08:41:01.902Z,20.03
2023-01-21T08:43:28.655Z,26.23
2023-01-21T08:45:56.539Z,19.37
2023-01-21T08:48:23.195Z,20.00
2023-01-21T08:50:49.944Z,25.30
2023-01-21T08:53:16.580Z,27.33
2023-01-21T08:55:43.920Z,23.43
2023-01-21T08:58:10.651Z,22.90
2023-01-21T09:00:37.535Z,23.30
2023-01-21T09:03:04.600Z,23.30
2023-01-21T09:05:31.213Z,23.30
2023-01-21T09:07:58.350Z,24.53
2023-01-21T09:10:43.715Z,22.27
2023-01-21T09:13:10.667Z,22.73
2023-01-21T09:15:39.154Z,21.30
2023-01-21T09:18:05.869Z,24.60
2023-01-21T09:20:32.664Z,23.37
2023-01-21T09:22:59.453Z,21.73
2023-01-21T09:25:26.595Z,22.30
2023-01-21T09:27:53.196Z,19.73
2023-01-21T09:30:19.779Z,23.33
2023-01-21T09:32:46.443Z,21.80
2023-01-21T09:35:13.071Z,19.93
2023-01-21T09:37:39.813Z,21.67
2023-01-21T09:40:06.890Z,20.03
2023-01-21T09:42:34.134Z,29.03
2023-01-21T09:45:02.727Z,22.20
2023-01-21T09:47:40.172Z,23.60
2023-01-21T09:50:11.227Z,24.53
2023-01-21T09:52:46.590Z,23.73
2023-01-21T09:55:43.303Z,22.47
2023-01-21T09:58:32.335Z,23.27
2023-01-21T10:01:02.385Z,21.40
2023-01-21T10:04:02.481Z,19.53
2023-01-21T10:06:48.834Z,22.30
2023-01-21T10:09:34.279Z,24.90
2023-01-21T10:12:09.786Z,24.77
2023-01-21T10:14:56.953Z,23.40
2023-01-21T10:17:44.074Z,26.03
2023-01-21T10:20:24.054Z,25.13
2023-01-21T10:23:06.029Z,26.73
2023-01-21T10:25:34.337Z,26.17
2023-01-21T10:28:16.565Z,23.87
2023-01-21T10:30:46.127Z,25.30
2023-01-21T10:33:21.319Z,26.50
2023-01-21T10:36:22.455Z,28.37
2023-01-21T10:39:22.980Z,26.23
2023-01-21T10:42:08.165Z,23.97
2023-01-21T10:44:46.659Z,27.37
2023-01-21T10:47:27.678Z,24.83
2023-01-21T10:50:09.343Z,26.07
2023-01-21T10:52:46.204Z,22.67
2023-01-21T10:55:36.866Z,23.40
2023-01-21T10:58:11.307Z,26.37
2023-01-21T11:00:47.374Z,25.73
2023-01-21T11:03:20.015Z,24.23
2023-01-21T11:05:49.763Z,26.73
2023-01-21T11:08:23.571Z,22.90
2023-01-21T11:10:55.131Z,23.70
2023-01-21T11:13:22.403Z,22.13
2023-01-21T11:15:54.141Z,20.13
2023-01-21T11:18:35.316Z,20.30
2023-01-21T11:21:23.244Z,19.83
2023-01-21T11:23:58.431Z,20.93
2023-01-21T11:26:33.673Z,23.98
2023-01-21T11:29:19.352Z,22.13
2023-01-21T11:31:51.539Z,21.07
2023-01-21T11:34:22.489Z,22.07
2023-01-21T11:37:07.181Z,21.93
2023-01-21T11:39:50.766Z,26.03
2023-01-21T11:42:19.020Z,21.53
2023-01-21T11:45:24.032Z,22.30
2023-01-21T11:47:51.711Z,22.83
2023-01-21T11:50:25.927Z,22.30
2023-01-21T11:53:07.845Z,20.57
2023-01-21T11:55:43.133Z,22.60
2023-01-21T11:58:18.385Z,18.97
2023-01-21T12:00:48.120Z,22.10
2023-01-21T12:03:20.200Z,21.93
2023-01-21T12:05:52.817Z,24.40
2023-01-21T12:08:27.214Z,25.30
2023-01-21T12:10:56.413Z,22.27
2023-01-21T12:13:37.219Z,21.37
2023-01-21T12:16:56.327Z,17.00
2023-01-21T12:19:41.576Z,17.67
2023-01-21T12:22:26.478Z,19.97
2023-01-21T12:25:12.109Z,17.97
2023-01-21T12:27:49.151Z,19.37
2023-01-21T12:30:24.868Z,17.27
2023-01-21T12:32:56.759Z,21.77
2023-01-21T12:35:28.426Z,18.80
2023-01-21T12:38:02.990Z,20.77
2023-01-21T12:40:54.389Z,21.43
2023-01-21T12:43:28.108Z,34.37
2023-01-21T12:46:02.797Z,32.70
2023-01-21T12:48:35.463Z,18.63
2023-01-21T12:51:12.468Z,27.13
2023-01-21T12:53:55.604Z,18.20
2023-01-21T12:56:43.608Z,16.30
2023-01-21T12:59:33.516Z,17.80
2023-01-21T13:02:05.652Z,14.80
2023-01-21T13:04:51.354Z,13.10
2023-01-21T13:07:34.057Z,15.70
2023-01-21T13:10:23.257Z,18.03
2023-01-21T13:12:58.102Z,18.23
2023-01-21T13:15:30.841Z,15.70
2023-01-21T13:18:00.851Z,16.27
2023-01-21T13:20:28.998Z,14.57
2023-01-21T13:23:20.324Z,17.40
2023-01-21T13:26:19.191Z,17.67
2023-01-21T13:28:53.985Z,15.33
2023-01-21T13:31:53.982Z,16.13
2023-01-21T13:34:39.521Z,19.43
2023-01-21T13:37:14.851Z,22.20
2023-01-21T13:39:55.711Z,16.27
2023-01-21T13:42:44.550Z,20.20
2023-01-21T13:45:45.850Z,24.23
2023-01-21T13:48:39.911Z,16.93
2023-01-21T13:51:34.040Z,19.37
2023-01-21T13:54:19.268Z,17.20
2023-01-21T13:56:55.925Z,15.80
2023-01-21T13:59:39.682Z,24.67
2023-01-21T14:02:16.732Z,16.97
2023-01-21T14:05:00.128Z,14.83
2023-01-21T14:07:42.155Z,15.70
2023-01-21T14:10:18.528Z,19.03
2023-01-21T14:13:09.803Z,17.97
2023-01-21T14:15:55.353Z,16.90
2023-01-21T14:19:01.168Z,16.60
2023-01-21T14:22:02.739Z,15.60
2023-01-21T14:24:51.040Z,15.40
2023-01-21T14:27:32.022Z,17.30
2023-01-21T14:30:17.895Z,15.83
2023-01-21T14:32:51.101Z,17.03
2023-01-21T14:35:42.417Z,16.67
2023-01-21T14:38:29.841Z,12.37
2023-01-21T14:41:08.310Z,12.43
2023-01-21T14:43:36.590Z,13.20
2023-01-21T14:46:22.836Z,15.10
2023-01-21T14:49:04.175Z,12.80
2023-01-21T14:51:31.938Z,14.33
2023-01-21T14:54:04.417Z,20.07
2023-01-21T14:56:33.638Z,16.70
2023-01-21T14:59:26.045Z,18.10
2023-01-21T15:02:03.226Z,14.23
2023-01-21T15:04:40.703Z,14.30
2023-01-21T15:07:18.114Z,15.13
2023-01-21T15:09:59.286Z,19.70
2023-01-21T15:12:29.987Z,15.27
2023-01-21T15:14:59.848Z,14.77
2023-01-21T15:17:47.039Z,12.57
2023-01-21T15:20:46.425Z,12.83
2023-01-21T15:23:18.519Z,11.53
2023-01-21T15:26:14.574Z,11.33
2023-01-21T15:28:56.230Z,10.03
2023-01-21T15:31:23.733Z,15.23
2023-01-21T15:33:53.742Z,9.93
2023-01-21T15:36:24.139Z,11.30
2023-01-21T15:38:53.441Z,11.13
2023-01-21T15:41:27.510Z,10.57
2023-01-21T15:44:08.220Z,11.93
2023-01-21T15:46:54.554Z,14.80
2023-01-21T15:49:47.055Z,10.90
2023-01-21T15:52:20.434Z,13.93
2023-01-21T15:55:32.047Z,13.40
2023-01-21T15:58:33.109Z,12.10
2023-01-21T16:01:14.199Z,12.20
2023-01-21T16:03:56.386Z,13.40
2023-01-21T16:06:37.792Z,12.57
2023-01-21T16:09:07.769Z,12.60
2023-01-21T16:11:55.851Z,15.10
2023-01-21T16:14:22.639Z,12.13
2023-01-21T16:16:55.219Z,12.57
2023-01-21T16:19:28.301Z,12.10
2023-01-21T16:22:01.199Z,9.17
2023-01-21T16:24:29.917Z,11.13
2023-01-21T16:27:16.658Z,10.10
2023-01-21T16:29:43.475Z,11.70
2023-01-21T16:32:17.272Z,8.77
2023-01-21T16:34:44.165Z,13.40
2023-01-21T16:37:17.373Z,9.57
2023-01-21T16:39:44.762Z,12.43
2023-01-21T16:42:25.984Z,8.97
2023-01-21T16:44:53.089Z,8.70
2023-01-21T16:47:26.893Z,12.23
2023-01-21T16:49:53.820Z,13.50
2023-01-21T16:52:23.748Z,14.27
2023-01-21T16:54:53.397Z,10.90
2023-01-21T16:57:29.641Z,12.90
2023-01-21T16:59:58.100Z,10.43
2023-01-21T17:02:27.011Z,15.57
2023-01-21T17:05:00.347Z,12.97
2023-01-21T17:07:43.935Z,12.20
2023-01-21T17:10:23.964Z,12.03
2023-01-21T17:12:56.663Z,10.23
2023-01-21T17:15:38.823Z,13.60
2023-01-21T17:18:08.510Z,14.37
2023-01-21T17:20:49.299Z,13.07
2023-01-21T17:23:21.890Z,9.37
2023-01-21T17:26:03.494Z,9.40
2023-01-21T17:28:53.476Z,10.40
2023-01-21T17:31:42.546Z,12.50
2023-01-21T17:34:15.312Z,13.97
2023-01-21T17:36:44.228Z,11.37
2023-01-21T17:39:12.168Z,10.77
2023-01-21T17:41:41.326Z,12.37
2023-01-21T17:44:18.493Z,11.93
2023-01-21T17:46:51.009Z,17.30
2023-01-21T17:49:21.507Z,14.03
2023-01-21T17:51:49.155Z,17.10
2023-01-21T17:54:21.303Z,11.73
2023-01-21T17:56:50.608Z,15.13
2023-01-21T17:59:38.987Z,11.10
2023-01-21T18:02:17.882Z,17.20
2023-01-21T18:04:44.617Z,18.60
2023-01-21T18:07:24.864Z,13.10
2023-01-21T18:09:53.224Z,11.33
2023-01-21T18:12:20.983Z,14.30
2023-01-21T18:14:47.927Z,9.30
2023-01-21T18:17:19.995Z,9.50
2023-01-21T18:19:46.630Z,13.07
2023-01-21T18:22:21.939Z,10.17
2023-01-21T18:24:48.575Z,12.37
2023-01-21T18:27:15.270Z,9.93
2023-01-21T18:29:43.260Z,13.17
2023-01-21T18:32:14.258Z,8.87
2023-01-21T18:34:41.076Z,10.20
2023-01-21T18:37:16.806Z,11.07
2023-01-21T18:39:43.420Z,9.67
2023-01-21T18:42:17.963Z,12.60
2023-01-21T18:44:44.631Z,9.77
2023-01-21T18:47:17.179Z,10.10
2023-01-21T18:49:44.245Z,12.20
2023-01-21T18:52:15.016Z,9.13
2023-01-21T18:54:41.950Z,12.47
2023-01-21T18:57:14.888Z,11.67
2023-01-21T18:59:41.586Z,9.17
2023-01-21T19:02:17.835Z,12.30
2023-01-21T19:04:45.378Z,9.20
2023-01-21T19:07:20.722Z,9.73
2023-01-21T19:09:49.897Z,11.37
2023-01-21T19:12:20.879Z,12.83
2023-01-21T19:14:48.744Z,9.43
2023-01-21T19:17:35.826Z,8.77
2023-01-21T19:20:02.548Z,12.23
2023-01-21T19:22:30.110Z,12.50
2023-01-21T19:24:56.932Z,11.70
2023-01-21T19:27:30.315Z,12.00
2023-01-21T19:29:56.976Z,10.83
2023-01-21T19:32:23.876Z,12.50
2023-01-21T19:34:50.579Z,9.77
2023-01-21T19:37:22.009Z,10.73
2023-01-21T19:39:48.592Z,9.93
2023-01-21T19:42:16.165Z,11.50
2023-01-21T19:44:43.396Z,10.67
2023-01-21T19:47:27.557Z,11.47
2023-01-21T19:49:54.466Z,9.37
2023-01-21T19:52:21.322Z,10.87
2023-01-21T19:54:47.939Z,10.30
2023-01-21T19:57:15.871Z,11.07
2023-01-21T19:59:44.628Z,12.60
2023-01-21T20:02:12.090Z,10.87
2023-01-21T20:04:39.274Z,11.33
2023-01-21T20:07:07.083Z,12.33
2023-01-21T20:09:34.712Z,12.17
2023-01-21T20:12:03.449Z,13.20
2023-01-21T20:14:33.406Z,11.30
2023-01-21T20:17:02.360Z,9.63
2023-01-21T20:19:29.139Z,9.83
2023-01-21T20:22:02.097Z,11.30
2023-01-21T20:24:33.393Z,12.10
2023-01-21T20:27:02.385Z,13.90
2023-01-21T20:29:29.270Z,11.53
2023-01-21T20:31:55.910Z,13.87
2023-01-21T20:34:22.827Z,8.97
2023-01-21T20:36:51.725Z,11.63
2023-01-21T20:39:18.637Z,9.23
2023-01-21T20:41:45.229Z,10.40
2023-01-21T20:44:11.871Z,10.77
2023-01-21T20:46:38.939Z,9.80
2023-01-21T20:49:05.816Z,9.23
2023-01-21T20:51:32.801Z,10.53
2023-01-21T20:53:59.379Z,11.43
2023-01-21T20:56:31.918Z,11.53
2023-01-21T20:58:59.588Z,12.53
2023-01-21T21:01:27.899Z,9.13
2023-01-21T21:03:55.009Z,10.60
2023-01-21T21:06:25.033Z,10.00
2023-01-21T21:08:51.769Z,11.67
2023-01-21T21:11:19.207Z,10.57
2023-01-21T21:13:48.364Z,10.47
2023-01-21T21:16:28.484Z,9.70
2023-01-21T21:18:56.229Z,14.07
2023-01-21T21:21:24.243Z,8.43
2023-01-21T21:23:52.198Z,10.03
2023-01-21T21:26:23.911Z,13.43
2023-01-21T21:28:54.654Z,19.10
2023-01-21T21:31:22.696Z,10.80
2023-01-21T21:33:49.864Z,11.33
2023-01-21T21:36:18.931Z,13.13
2023-01-21T21:38:46.593Z,13.20
2023-01-21T21:41:37.091Z,11.50
2023-01-21T21:44:08.211Z,11.60
2023-01-21T21:46:57.428Z,11.33
2023-01-21T21:49:24.244Z,10.57
2023-01-21T21:51:51.291Z,12.37
2023-01-21T21:54:18.538Z,13.63
2023-01-21T21:56:46.043Z,18.50
2023-01-21T21:59:13.335Z,12.77
2023-01-21T22:01:44.122Z,20.17
2023-01-21T22:04:11.291Z,13.40
2023-01-21T22:06:38.257Z,14.83
2023-01-21T22:09:04.996Z,13.20
2023-01-21T22:11:31.588Z,15.23
2023-01-21T22:13:58.869Z,12.03
2023-01-21T22:16:28.184Z,9.93
2023-01-21T22:18:56.703Z,11.83
2023-01-21T22:21:26.177Z,11.73
2023-01-21T22:23:53.839Z,14.20
2023-01-21T22:26:23.113Z,10.03
2023-01-21T22:28:52.852Z,11.70
2023-01-21T22:31:22.839Z,12.47
2023-01-21T22:33:49.854Z,11.90
2023-01-21T22:36:18.666Z,11.53
2023-01-21T22:38:46.275Z,14.90
2023-01-21T22:41:14.890Z,12.23
2023-01-21T22:43:44.714Z,12.90
2023-01-21T22:46:13.530Z,16.00
2023-01-21T22:48:41.484Z,14.83
2023-01-21T22:51:12.211Z,12.23
2023-01-21T22:53:43.892Z,14.97
2023-01-21T22:56:13.040Z,11.60
2023-01-21T22:58:39.895Z,12.50
2023-01-21T23:01:06.838Z,12.30
2023-01-21T23:03:33.852Z,14.07
2023-01-21T23:06:08.153Z,12.73
2023-01-21T23:08:37.851Z,11.87
2023-01-21T23:11:07.285Z,10.97
2023-01-21T23:13:34.521Z,13.80
2023-01-21T23:16:01.560Z,13.23
2023-01-21T23:18:29.242Z,13.03
2023-01-21T23:20:56.368Z,13.07
2023-01-21T23:23:24.595Z,10.77
2023-01-21T23:25:51.279Z,10.33
2023-01-21T23:28:17.955Z,13.70
2023-01-21T23:30:44.738Z,11.20
2023-01-21T23:33:11.728Z,11.43
2023-01-21T23:35:38.407Z,10.80
2023-01-21T23:38:05.020Z,12.47
2023-01-21T23:40:31.704Z,11.00
2023-01-21T23:42:58.341Z,10.87
2023-01-21T23:45:24.934Z,10.37
2023-01-21T23:47:51.538Z,12.93
2023-01-21T23:50:18.545Z,15.60
2023-01-21T23:52:45.327Z,11.90
2023-01-21T23:55:12.733Z,11.67
2023-01-21T23:57:39.431Z,11.20
